createdAt,value
2023-02-24T00:02:00.434Z,49.17
2023-02-24T00:04:30.162Z,44.70
2023-02-24T00:06:58.157Z,40.45
2023-02-24T00:09:27.260Z,42.70
2023-02-24T00:12:00.245Z,43.33
2023-02-24T00:14:29.970Z,41.22
2023-02-24T00:16:59.045Z,43.88
2023-02-24T00:19:29.764Z,44.40
2023-02-24T00:21:59.060Z,45.78
2023-02-24T00:24:27.114Z,32.75
2023-02-24T00:26:56.497Z,33.80
2023-02-24T00:29:27.720Z,31.17
2023-02-24T00:31:57.144Z,34.60
2023-02-24T00:34:26.000Z,32.97
2023-02-24T00:36:57.724Z,34.70
2023-02-24T00:39:34.087Z,35.63
2023-02-24T00:42:06.823Z,33.90
2023-02-24T00:44:46.084Z,34.25
2023-02-24T00:47:18.430Z,34.40
2023-02-24T00:49:46.644Z,33.72
2023-02-24T00:52:16.603Z,34.63
2023-02-24T00:54:44.760Z,32.08
2023-02-24T00:57:13.296Z,31.98
2023-02-24T00:59:41.178Z,32.65
2023-02-24T01:02:09.072Z,33.85
2023-02-24T01:04:38.627Z,34.45
2023-02-24T01:07:11.410Z,33.10
2023-02-24T01:09:40.645Z,37.70
2023-02-24T01:12:19.438Z,36.67
2023-02-24T01:14:48.077Z,36.50
2023-02-24T01:17:17.208Z,38.92
2023-02-24T01:19:45.728Z,35.20
2023-02-24T01:22:15.303Z,36.67
2023-02-24T01:24:44.234Z,37.97
2023-02-24T01:27:18.152Z,38.58
2023-02-24T01:29:47.392Z,43.58
2023-02-24T01:32:17.735Z,41.42
2023-02-24T01:34:46.503Z,48.80
2023-02-24T01:37:17.895Z,45.47
2023-02-24T01:39:46.581Z,46.53
2023-02-24T01:42:20.941Z,42.88
2023-02-24T01:44:49.326Z,41.47
2023-02-24T01:47:18.941Z,75.43
2023-02-24T01:49:48.156Z,102.18
2023-02-24T01:52:31.193Z,92.75
2023-02-24T01:55:15.409Z,92.10
2023-02-24T01:57:43.833Z,97.32
2023-02-24T02:00:19.831Z,98.03
2023-02-24T02:02:50.886Z,98.90
2023-02-24T02:05:19.444Z,91.75
2023-02-24T02:07:47.532Z,95.20
2023-02-24T02:10:18.979Z,89.93
2023-02-24T02:12:47.119Z,81.18
2023-02-24T02:15:17.175Z,82.43
2023-02-24T02:18:04.502Z,83.88
2023-02-24T02:20:54.166Z,77.85
2023-02-24T02:23:56.152Z,72.03
2023-02-24T02:26:54.446Z,71.70
2023-02-24T02:29:37.507Z,69.30
2023-02-24T02:32:38.796Z,76.03
2023-02-24T02:35:13.865Z,74.95
2023-02-24T02:37:57.514Z,73.05
2023-02-24T02:40:40.123Z,73.40
2023-02-24T02:43:31.791Z,71.63
2023-02-24T02:46:06.920Z,72.97
2023-02-24T02:48:44.340Z,75.22
2023-02-24T02:51:13.716Z,78.97
2023-02-24T02:54:12.953Z,72.65
2023-02-24T02:56:43.495Z,74.13
2023-02-24T02:59:13.151Z,76.72
2023-02-24T03:01:44.250Z,85.50
2023-02-24T03:04:13.554Z,95.47
2023-02-24T03:06:57.125Z,86.95
2023-02-24T03:09:29.886Z,75.20
2023-02-24T03:12:08.440Z,74.22
2023-02-24T03:14:39.604Z,72.72
2023-02-24T03:17:13.281Z,68.75
2023-02-24T03:19:41.516Z,67.88
2023-02-24T03:22:15.284Z,70.43
2023-02-24T03:24:46.441Z,67.13
2023-02-24T03:27:48.825Z,70.00
2023-02-24T03:30:23.458Z,67.55
2023-02-24T03:33:03.930Z,72.68
2023-02-24T03:35:34.874Z,71.15
2023-02-24T03:38:03.672Z,71.07
2023-02-24T03:40:36.404Z,70.25
2023-02-24T03:43:09.009Z,73.60
2023-02-24T03:45:38.923Z,68.88
2023-02-24T03:48:08.623Z,69.43
2023-02-24T03:50:38.491Z,72.68
2023-02-24T03:53:31.993Z,71.20
2023-02-24T03:56:26.196Z,73.55
2023-02-24T03:59:06.082Z,78.45
2023-02-24T04:01:42.661Z,85.82
2023-02-24T04:04:17.787Z,74.10
2023-02-24T04:07:03.321Z,80.45
2023-02-24T04:09:38.824Z,78.65
2023-02-24T04:12:43.221Z,73.05
2023-02-24T04:15:24.364Z,62.83
2023-02-24T04:17:58.007Z,55.40
2023-02-24T04:20:33.067Z,59.75
2023-02-24T04:25:32.862Z,58.47
2023-02-24T04:28:01.644Z,59.47
2023-02-24T04:30:34.611Z,58.83
2023-02-24T04:33:03.358Z,62.92
2023-02-24T04:35:31.979Z,59.45
2023-02-24T04:38:00.232Z,57.95
2023-02-24T04:40:29.489Z,62.78
2023-02-24T04:42:57.970Z,68.53
2023-02-24T04:45:28.447Z,65.18
2023-02-24T04:48:01.389Z,64.60
2023-02-24T04:50:34.876Z,62.30
2023-02-24T04:53:11.625Z,59.10
2023-02-24T04:55:43.153Z,53.58
2023-02-24T04:58:12.669Z,46.38
2023-02-24T05:00:42.318Z,48.85
2023-02-24T05:03:12.812Z,48.72
2023-02-24T05:05:43.285Z,50.92
2023-02-24T05:08:11.574Z,51.65
2023-02-24T05:10:47.016Z,52.47
2023-02-24T05:13:19.720Z,51.10
2023-02-24T05:15:48.661Z,51.17
2023-02-24T05:18:24.358Z,56.53
2023-02-24T05:21:14.673Z,55.78
2023-02-24T05:23:47.386Z,58.22
2023-02-24T05:26:17.435Z,55.72
2023-02-24T05:28:53.071Z,56.53
2023-02-24T05:31:26.798Z,56.85
2023-02-24T05:33:59.937Z,59.45
2023-02-24T05:36:40.840Z,57.90
2023-02-24T05:39:12.890Z,58.25
2023-02-24T05:41:42.475Z,51.43
2023-02-24T05:44:16.585Z,51.50
2023-02-24T05:46:46.293Z,52.60
2023-02-24T05:49:22.521Z,51.10
2023-02-24T05:51:55.337Z,46.85
2023-02-24T05:56:52.984Z,43.40
2023-02-24T05:59:22.277Z,41.10
2023-02-24T06:01:53.553Z,46.03
2023-02-24T06:04:24.345Z,46.70
2023-02-24T06:06:55.183Z,42.67
2023-02-24T06:09:23.930Z,44.10
2023-02-24T06:11:52.063Z,41.53
2023-02-24T06:14:22.166Z,38.30
2023-02-24T06:16:51.718Z,40.92
2023-02-24T06:19:21.077Z,39.05
2023-02-24T06:21:49.124Z,40.72
2023-02-24T06:24:18.817Z,40.28
2023-02-24T06:26:46.890Z,38.33
2023-02-24T06:29:15.782Z,38.17
2023-02-24T06:31:44.614Z,42.03
2023-02-24T06:34:13.606Z,40.85
2023-02-24T06:36:42.467Z,41.50
2023-02-24T06:39:15.034Z,42.78
2023-02-24T06:41:43.259Z,39.30
2023-02-24T06:44:11.525Z,42.42
2023-02-24T06:46:39.435Z,41.03
2023-02-24T06:49:08.362Z,42.65
2023-02-24T06:51:36.642Z,41.38
2023-02-24T06:54:06.922Z,42.60
2023-02-24T06:56:39.147Z,42.60
2023-02-24T06:59:07.449Z,41.28
2023-02-24T07:01:36.227Z,41.80
2023-02-24T07:04:26.409Z,39.40
2023-02-24T07:06:58.367Z,42.03
2023-02-24T07:09:27.508Z,39.53
2023-02-24T07:11:57.178Z,37.35
2023-02-24T07:14:27.224Z,42.40
2023-02-24T07:16:55.791Z,43.00
2023-02-24T07:19:26.407Z,43.35
2023-02-24T07:22:02.488Z,45.63
2023-02-24T07:24:37.042Z,45.15
2023-02-24T07:27:11.586Z,43.22
2023-02-24T07:29:39.773Z,45.05
2023-02-24T07:32:09.317Z,40.95
2023-02-24T07:34:40.767Z,43.25
2023-02-24T07:37:09.996Z,42.13
2023-02-24T07:39:38.998Z,39.83
2023-02-24T07:42:08.361Z,38.22
2023-02-24T07:44:49.755Z,41.15
2023-02-24T07:47:17.792Z,44.15
2023-02-24T07:49:46.162Z,47.60
2023-02-24T07:52:14.140Z,47.88
2023-02-24T07:54:42.670Z,46.65
2023-02-24T07:57:14.473Z,46.55
2023-02-24T07:59:45.652Z,47.00
2023-02-24T08:02:14.273Z,43.08
2023-02-24T08:04:48.923Z,43.58
2023-02-24T08:07:25.344Z,42.15
2023-02-24T08:10:14.887Z,39.65
2023-02-24T08:12:43.159Z,40.70
2023-02-24T08:15:17.731Z,41.50
2023-02-24T08:17:47.814Z,41.45
2023-02-24T08:20:16.564Z,40.92
2023-02-24T08:22:47.245Z,39.95
2023-02-24T08:25:19.411Z,42.80
2023-02-24T08:28:08.770Z,44.13
2023-02-24T08:30:40.700Z,40.95
2023-02-24T08:33:11.536Z,41.10
2023-02-24T08:35:45.396Z,38.00
2023-02-24T08:38:18.426Z,38.92
2023-02-24T08:40:52.246Z,39.55
2023-02-24T08:43:30.454Z,36.00
2023-02-24T08:46:18.906Z,38.38
2023-02-24T08:48:49.628Z,35.15
2023-02-24T08:51:31.732Z,37.30
2023-02-24T08:54:01.840Z,37.35
2023-02-24T08:56:35.066Z,36.05
2023-02-24T08:59:08.077Z,36.55
2023-02-24T09:01:40.583Z,39.65
2023-02-24T09:04:12.419Z,40.85
2023-02-24T09:06:51.253Z,39.67
2023-02-24T09:09:23.476Z,39.38
2023-02-24T09:11:59.032Z,43.13
2023-02-24T09:14:29.536Z,42.65
2023-02-24T09:17:30.782Z,44.45
2023-02-24T09:20:18.174Z,44.05
2023-02-24T09:22:58.140Z,45.42
2023-02-24T09:25:41.094Z,47.38
2023-02-24T09:28:20.325Z,47.58
2023-02-24T09:30:51.821Z,49.90
2023-02-24T09:33:39.519Z,51.00
2023-02-24T09:36:20.685Z,50.20
2023-02-24T09:39:00.158Z,48.38
2023-02-24T09:41:54.937Z,46.15
2023-02-24T09:44:40.013Z,47.88
2023-02-24T09:47:49.557Z,50.88
2023-02-24T09:50:40.635Z,46.80
2023-02-24T09:53:19.761Z,43.92
2023-02-24T09:56:07.185Z,43.83
2023-02-24T09:59:13.433Z,40.08
2023-02-24T10:01:57.349Z,39.53
2023-02-24T10:04:40.982Z,38.47
2023-02-24T10:07:17.273Z,39.78
2023-02-24T10:09:50.778Z,42.17
2023-02-24T10:12:32.247Z,45.42
2023-02-24T10:15:41.958Z,45.42
2023-02-24T10:18:39.163Z,46.22
2023-02-24T10:21:19.289Z,48.50
2023-02-24T10:24:02.666Z,46.67
2023-02-24T10:29:39.527Z,42.53
2023-02-24T10:32:32.352Z,43.42
2023-02-24T10:35:04.136Z,43.40
2023-02-24T10:37:32.509Z,43.92
2023-02-24T10:40:10.362Z,46.38
2023-02-24T10:42:46.160Z,46.17
2023-02-24T10:45:23.872Z,44.60
2023-02-24T10:47:59.291Z,44.58
2023-02-24T10:50:34.747Z,44.88
2023-02-24T10:53:08.037Z,47.72
2023-02-24T10:58:28.373Z,45.00
2023-02-24T11:01:13.768Z,47.25
2023-02-24T11:04:24.372Z,47.30
2023-02-24T11:06:58.519Z,49.50
2023-02-24T11:09:30.386Z,49.35
2023-02-24T11:12:34.229Z,48.47
2023-02-24T11:15:22.833Z,48.67
2023-02-24T11:17:57.366Z,55.92
2023-02-24T11:20:47.709Z,47.33
2023-02-24T11:23:26.661Z,51.58
2023-02-24T11:26:01.930Z,62.20
2023-02-24T11:28:39.524Z,62.25
2023-02-24T11:31:33.464Z,68.72
2023-02-24T11:34:05.581Z,66.82
2023-02-24T11:37:09.860Z,71.00
2023-02-24T11:40:00.785Z,68.72
2023-02-24T11:42:47.590Z,65.28
2023-02-24T11:45:49.920Z,65.97
2023-02-24T11:48:30.094Z,66.65
2023-02-24T11:51:06.503Z,68.00
2023-02-24T11:53:47.518Z,67.75
2023-02-24T11:56:29.288Z,68.78
2023-02-24T11:59:05.666Z,65.20
2023-02-24T12:01:34.284Z,62.50
2023-02-24T12:04:24.836Z,62.35
2023-02-24T12:06:58.671Z,65.30
2023-02-24T12:09:29.616Z,65.90
2023-02-24T12:12:18.610Z,71.50
2023-02-24T12:14:56.698Z,75.20
2023-02-24T12:17:58.747Z,83.22
2023-02-24T12:20:31.347Z,87.50
2023-02-24T12:23:16.425Z,89.93
2023-02-24T12:26:09.464Z,78.53
2023-02-24T12:29:00.878Z,74.80
2023-02-24T12:31:54.949Z,89.30
2023-02-24T12:35:00.314Z,94.80
2023-02-24T12:37:31.795Z,113.55
2023-02-24T12:40:02.765Z,109.70
2023-02-24T12:43:14.496Z,110.95
2023-02-24T12:46:24.259Z,96.53
2023-02-24T12:49:13.648Z,85.68
2023-02-24T12:51:44.304Z,84.47
2023-02-24T12:54:29.919Z,86.03
2023-02-24T12:57:24.228Z,82.85
2023-02-24T12:59:52.244Z,80.32
2023-02-24T13:02:45.591Z,80.25
2023-02-24T13:05:29.908Z,79.35
2023-02-24T13:08:13.374Z,76.88
2023-02-24T13:11:00.403Z,77.72
2023-02-24T13:13:33.762Z,105.60
2023-02-24T13:16:02.398Z,114.28
2023-02-24T13:18:34.528Z,117.68
2023-02-24T13:21:16.511Z,132.93
2023-02-24T13:23:55.784Z,114.60
2023-02-24T13:26:26.086Z,120.03
2023-02-24T13:29:14.498Z,113.03
2023-02-24T13:31:49.874Z,108.22
2023-02-24T13:34:31.785Z,129.23
2023-02-24T13:37:00.086Z,105.45
2023-02-24T13:39:36.437Z,100.57
2023-02-24T13:42:24.883Z,102.82
2023-02-24T13:44:54.451Z,107.93
2023-02-24T13:47:36.352Z,106.90
2023-02-24T13:50:21.273Z,112.72
2023-02-24T13:53:26.329Z,115.75
2023-02-24T13:56:27.804Z,121.88
2023-02-24T13:59:25.156Z,129.23
2023-02-24T14:02:01.467Z,160.13
2023-02-24T14:04:32.101Z,177.25
2023-02-24T14:07:03.883Z,113.47
2023-02-24T14:09:34.718Z,123.35
2023-02-24T14:12:13.399Z,122.05
2023-02-24T14:14:43.395Z,110.15
2023-02-24T14:17:28.749Z,98.57
2023-02-24T14:20:12.357Z,88.82
2023-02-24T14:22:45.661Z,81.05
2023-02-24T14:25:13.863Z,91.22
2023-02-24T14:27:44.255Z,111.63
2023-02-24T14:30:34.052Z,133.93
2023-02-24T14:33:03.002Z,151.98
2023-02-24T14:35:43.763Z,160.07
2023-02-24T14:38:39.659Z,143.52
2023-02-24T14:41:24.579Z,179.18
2023-02-24T14:43:52.875Z,177.18
2023-02-24T14:46:21.675Z,182.65
2023-02-24T14:48:55.072Z,196.25
2023-02-24T14:51:34.478Z,192.55
2023-02-24T14:54:04.560Z,197.68
2023-02-24T14:56:33.890Z,179.98
2023-02-24T14:59:06.581Z,202.25
2023-02-24T15:01:37.500Z,192.70
2023-02-24T15:04:24.551Z,189.02
2023-02-24T15:06:52.984Z,189.15
2023-02-24T15:09:22.733Z,167.30
2023-02-24T15:11:51.275Z,166.20
2023-02-24T15:14:21.941Z,157.88
2023-02-24T15:16:52.640Z,158.05
2023-02-24T15:19:38.285Z,133.70
2023-02-24T15:22:23.424Z,132.68
2023-02-24T15:24:52.498Z,120.78
2023-02-24T15:27:22.601Z,118.18
2023-02-24T15:30:08.656Z,121.45
2023-02-24T15:32:38.511Z,118.80
2023-02-24T15:35:08.366Z,121.85
2023-02-24T15:37:42.575Z,124.85
2023-02-24T15:40:19.294Z,131.07
2023-02-24T15:43:09.018Z,109.53
2023-02-24T15:45:39.110Z,107.60
2023-02-24T15:48:21.475Z,103.80
2023-02-24T15:50:50.654Z,101.47
2023-02-24T15:53:18.698Z,97.10
2023-02-24T15:55:46.820Z,100.90
2023-02-24T15:58:17.795Z,106.53
2023-02-24T16:00:46.551Z,103.13
2023-02-24T16:03:14.633Z,98.18
2023-02-24T16:05:42.713Z,97.43
2023-02-24T16:08:14.345Z,101.07
2023-02-24T16:10:42.488Z,99.68
2023-02-24T16:13:18.807Z,99.82
2023-02-24T16:15:47.585Z,82.90
2023-02-24T16:18:21.947Z,86.03
2023-02-24T16:20:57.778Z,88.85
2023-02-24T16:23:26.452Z,86.03
2023-02-24T16:25:59.308Z,88.45
2023-02-24T16:28:27.500Z,84.90
2023-02-24T16:30:55.676Z,88.43
2023-02-24T16:33:24.156Z,87.72
2023-02-24T16:35:55.661Z,90.18
2023-02-24T16:38:27.212Z,87.40
2023-02-24T16:40:55.355Z,91.15
2023-02-24T16:43:23.299Z,84.80
2023-02-24T16:45:51.551Z,94.00
2023-02-24T16:48:23.941Z,92.50
2023-02-24T16:50:52.275Z,101.68
2023-02-24T16:53:23.059Z,108.22
2023-02-24T16:55:51.511Z,113.85
2023-02-24T16:58:19.689Z,115.15
2023-02-24T17:00:50.585Z,116.43
2023-02-24T17:03:22.995Z,115.95
2023-02-24T17:08:19.806Z,117.78
2023-02-24T17:10:48.214Z,121.97
2023-02-24T17:13:18.056Z,124.93
2023-02-24T17:15:46.741Z,129.50
2023-02-24T17:18:14.769Z,131.02
2023-02-24T17:20:43.157Z,123.55
2023-02-24T17:23:11.865Z,123.65
2023-02-24T17:25:40.089Z,114.35
2023-02-24T17:28:08.651Z,102.28
2023-02-24T17:30:36.734Z,106.22
2023-02-24T17:33:05.316Z,117.63
2023-02-24T17:35:33.311Z,125.57
2023-02-24T17:38:01.339Z,117.97
2023-02-24T17:40:29.604Z,117.70
2023-02-24T17:42:58.134Z,129.90
2023-02-24T17:45:26.120Z,122.78
2023-02-24T17:47:54.488Z,118.00
2023-02-24T17:50:22.431Z,119.18
2023-02-24T17:52:51.080Z,119.50
2023-02-24T17:55:22.928Z,131.55
2023-02-24T17:57:51.174Z,126.18
2023-02-24T18:00:19.602Z,123.35
2023-02-24T18:02:47.659Z,133.48
2023-02-24T18:05:16.425Z,139.05
2023-02-24T18:07:44.408Z,124.65
2023-02-24T18:10:13.071Z,134.02
2023-02-24T18:12:41.022Z,130.38
2023-02-24T18:15:09.810Z,125.72
2023-02-24T18:17:38.649Z,131.85
2023-02-24T18:20:07.770Z,131.65
2023-02-24T18:22:35.947Z,129.80
2023-02-24T18:25:04.034Z,129.95
2023-02-24T18:27:32.085Z,139.88
2023-02-24T18:30:00.720Z,135.73
2023-02-24T18:32:29.193Z,127.82
2023-02-24T18:34:57.336Z,131.50
2023-02-24T18:37:25.328Z,129.10
2023-02-24T18:39:54.146Z,128.13
2023-02-24T18:42:22.422Z,115.28
2023-02-24T18:44:50.595Z,111.25
2023-02-24T18:47:18.868Z,112.50
2023-02-24T18:49:49.194Z,116.35
2023-02-24T18:52:17.040Z,125.63
2023-02-24T18:54:45.059Z,117.78
2023-02-24T18:57:13.966Z,106.95
2023-02-24T18:59:41.837Z,106.57
2023-02-24T19:02:13.618Z,106.53
2023-02-24T19:04:41.815Z,111.13
2023-02-24T19:07:09.958Z,110.07
2023-02-24T19:09:40.224Z,114.78
2023-02-24T19:12:09.615Z,113.20
2023-02-24T19:14:38.126Z,110.40
2023-02-24T19:17:06.361Z,116.43
2023-02-24T19:19:34.250Z,108.22
2023-02-24T19:22:02.125Z,104.43
2023-02-24T19:24:31.202Z,101.95
2023-02-24T19:26:59.665Z,104.70
2023-02-24T19:29:28.225Z,104.60
2023-02-24T19:31:58.127Z,107.28
2023-02-24T19:34:26.681Z,102.88
2023-02-24T19:36:54.655Z,105.30
2023-02-24T19:39:22.888Z,102.60
2023-02-24T19:41:51.142Z,103.97
2023-02-24T19:44:19.133Z,99.18
2023-02-24T19:46:47.536Z,99.50
2023-02-24T19:49:15.519Z,95.15
2023-02-24T19:51:46.613Z,95.68
2023-02-24T19:56:44.778Z,97.78
2023-02-24T19:59:15.819Z,104.82
2023-02-24T20:01:44.282Z,99.13
2023-02-24T20:04:13.271Z,97.85
2023-02-24T20:06:43.924Z,98.47
2023-02-24T20:09:15.792Z,98.43
2023-02-24T20:11:44.516Z,96.93
2023-02-24T20:14:13.493Z,94.65
2023-02-24T20:16:42.050Z,90.82
2023-02-24T20:19:11.928Z,96.20
2023-02-24T20:21:40.053Z,96.18
2023-02-24T20:24:11.487Z,94.38
2023-02-24T20:29:11.695Z,95.55
2023-02-24T20:31:40.134Z,95.78
2023-02-24T20:34:09.968Z,101.90
2023-02-24T20:36:38.543Z,112.65
2023-02-24T20:39:12.850Z,123.45
2023-02-24T20:41:41.250Z,109.47
2023-02-24T20:44:09.889Z,101.90
2023-02-24T20:46:38.437Z,105.78
2023-02-24T20:49:08.284Z,113.93
2023-02-24T20:51:37.723Z,112.55
2023-02-24T20:54:06.258Z,104.40
2023-02-24T20:56:36.731Z,112.68
2023-02-24T20:59:06.740Z,106.38
2023-02-24T21:01:35.308Z,103.57
2023-02-24T21:04:03.956Z,105.43
2023-02-24T21:06:32.144Z,106.53
2023-02-24T21:09:00.382Z,111.95
2023-02-24T21:11:30.540Z,103.90
2023-02-24T21:13:59.045Z,109.50
2023-02-24T21:16:27.405Z,103.90
2023-02-24T21:18:56.553Z,112.32
2023-02-24T21:21:24.853Z,105.85
2023-02-24T21:23:53.032Z,106.65
2023-02-24T21:26:21.430Z,110.10
2023-02-24T21:28:50.019Z,103.75
2023-02-24T21:31:20.936Z,103.45
2023-02-24T21:33:53.244Z,97.32
2023-02-24T21:36:22.186Z,101.95
2023-02-24T21:38:51.787Z,102.20
2023-02-24T21:41:20.138Z,104.47
2023-02-24T21:43:48.614Z,103.28
2023-02-24T21:46:16.695Z,105.13
2023-02-24T21:48:45.120Z,104.63
2023-02-24T21:51:14.021Z,102.38
2023-02-24T21:53:44.451Z,102.05
2023-02-24T21:56:22.852Z,105.18
2023-02-24T21:58:54.935Z,101.72
2023-02-24T22:01:32.310Z,102.75
2023-02-24T22:04:02.711Z,111.93
2023-02-24T22:06:31.897Z,103.20
2023-02-24T22:09:00.827Z,103.78
2023-02-24T22:11:29.824Z,106.43
2023-02-24T22:13:57.806Z,100.88
2023-02-24T22:16:26.303Z,103.40
2023-02-24T22:18:55.695Z,105.93
2023-02-24T22:21:26.316Z,106.60
2023-02-24T22:23:56.286Z,103.10
2023-02-24T22:26:25.748Z,103.35
2023-02-24T22:28:54.807Z,104.80
2023-02-24T22:31:25.448Z,99.60
2023-02-24T22:33:53.832Z,97.78
2023-02-24T22:36:27.235Z,94.50
2023-02-24T22:38:56.362Z,89.85
2023-02-24T22:41:26.213Z,92.22
2023-02-24T22:43:54.786Z,88.72
2023-02-24T22:46:33.958Z,91.72
2023-02-24T22:49:02.234Z,84.25
2023-02-24T22:51:30.307Z,86.82
2023-02-24T22:53:58.225Z,85.63
2023-02-24T22:56:27.341Z,85.22
2023-02-24T22:58:55.937Z,86.40
2023-02-24T23:01:28.930Z,84.80
2023-02-24T23:04:00.210Z,84.95
2023-02-24T23:06:28.597Z,81.85
2023-02-24T23:08:57.709Z,81.90
2023-02-24T23:11:30.885Z,84.57
2023-02-24T23:14:00.747Z,81.65
2023-02-24T23:16:32.031Z,83.78
2023-02-24T23:19:04.712Z,83.43
2023-02-24T23:21:39.971Z,80.13
2023-02-24T23:24:09.723Z,80.07
2023-02-24T23:26:41.006Z,78.07
2023-02-24T23:29:13.079Z,78.25
2023-02-24T23:31:42.031Z,77.95
2023-02-24T23:34:10.750Z,79.90
2023-02-24T23:36:41.149Z,78.22
2023-02-24T23:39:09.517Z,78.97
2023-02-24T23:41:38.059Z,79.28
2023-02-24T23:44:06.425Z,79.60
2023-02-24T23:46:35.256Z,77.90
2023-02-24T23:49:03.530Z,80.63
2023-02-24T23:51:46.958Z,88.55
2023-02-24T23:54:17.527Z,82.00
2023-02-24T23:56:45.750Z,88.82
2023-02-24T23:59:14.254Z,90.53
